Time;durP1;ratioP1;P1;durP2;ratioP2;P2;SDS_P1;SDS_P2;PMS_P1;PMS_P2;Temp;Humidity;BMP_temperature;BMP_pressure;BME280_temperature;BME280_humidity;BME280_pressure;Samples;Min_cycle;Max_cycle;Signal;HPM_P1;HPM_P2
2023/06/21 00:01:30;;;;;;;14.3;11.6;;;;;;;18.4;74.51;;;;;
2023/06/21 00:12:30;;;;;;;15.6;13;;;;;;;18.28;75.4;;;;;
2023/06/21 00:22:30;;;;;;;15.6;13;;;;;;;18.48;74.71;;;;;
2023/06/21 00:33:30;;;;;;;15.6;13;;;;;;;18.49;74.27;;;;;
2023/06/21 00:44:30;;;;;;;15.4;12.5;;;;;;;18.64;74.05;;;;;
2023/06/21 00:55:30;;;;;;;15.4;12.5;;;;;;;18.81;73.27;;;;;
2023/06/21 01:06:32;;;;;;;15.4;12.5;;;;;;;18.93;74.01;;;;;
2023/06/21 01:16:30;;;;;;;14.6;11.4;;;;;;;18.86;75.22;;;;;
2023/06/21 01:27:30;;;;;;;14.6;11.4;;;;;;;18.8;75.87;;;;;
2023/06/21 01:38:30;;;;;;;14.6;11.4;;;;;;;18.66;76.1;;;;;
2023/06/21 01:49:30;;;;;;;14.2;11.9;;;;;;;18.63;75.5;;;;;
2023/06/21 01:59:30;;;;;;;14.2;11.9;;;;;;;18.56;75.91;;;;;
2023/06/21 02:10:30;;;;;;;19.7;14;;;;;;;18.45;75.85;;;;;
2023/06/21 02:20:31;;;;;;;19.7;14;;;;;;;18;79.72;;;;;
2023/06/21 02:31:30;;;;;;;19.7;14;;;;;;;18.02;78.82;;;;;
2023/06/21 02:42:32;;;;;;;17.9;13.7;;;;;;;18.07;78.18;;;;;
2023/06/21 02:53:30;;;;;;;17.9;13.7;;;;;;;18.22;78.35;;;;;
2023/06/21 03:03:30;;;;;;;17.9;13.7;;;;;;;18.42;77.76;;;;;
2023/06/21 03:13:30;;;;;;;20.4;16;;;;;;;18.57;77.75;;;;;
2023/06/21 03:24:32;;;;;;;20.4;16;;;;;;;18.78;77.47;;;;;
2023/06/21 03:34:30;;;;;;;20.4;16;;;;;;;19.05;77.25;;;;;
2023/06/21 03:44:30;;;;;;;19.7;15.9;;;;;;;19.45;77.2;;;;;
2023/06/21 03:55:30;;;;;;;19.7;15.9;;;;;;;19.89;76.81;;;;;
2023/06/21 04:06:30;;;;;;;19.7;15.9;;;;;;;20.51;74.07;;;;;
2023/06/21 04:17:30;;;;;;;18.3;14.8;;;;;;;21.07;71.71;;;;;
2023/06/21 04:28:30;;;;;;;18.3;14.8;;;;;;;21.75;69.93;;;;;
2023/06/21 04:38:33;;;;;;;18.3;14.8;;;;;;;22.2;68.57;;;;;
2023/06/21 04:49:30;;;;;;;19;16.5;;;;;;;22.61;66.78;;;;;
2023/06/21 04:59:30;;;;;;;19;16.5;;;;;;;23.49;64.2;;;;;
2023/06/21 05:09:30;;;;;;;19;16.5;;;;;;;23.6;66.2;;;;;
2023/06/21 05:20:30;;;;;;;16.6;12.9;;;;;;;24.04;62.01;;;;;
2023/06/21 05:31:31;;;;;;;16.6;12.9;;;;;;;23.92;63.67;;;;;
2023/06/21 05:41:30;;;;;;;14.2;12.3;;;;;;;24.05;63.73;;;;;
2023/06/21 05:52:30;;;;;;;14.2;12.3;;;;;;;23.98;64.2;;;;;
2023/06/21 06:03:30;;;;;;;14.2;12.3;;;;;;;24.71;61.83;;;;;
2023/06/21 06:13:30;;;;;;;14.1;11.7;;;;;;;25.36;62.24;;;;;
2023/06/21 06:23:30;;;;;;;14.1;11.7;;;;;;;25.93;62.87;;;;;
2023/06/21 06:34:30;;;;;;;14.1;11.7;;;;;;;26.28;59.96;;;;;
2023/06/21 06:44:30;;;;;;;17.4;11;;;;;;;26.74;60.09;;;;;
2023/06/21 06:55:30;;;;;;;17.4;11;;;;;;;26.79;60.48;;;;;
2023/06/21 07:05:30;;;;;;;17.4;11;;;;;;;27.13;60.28;;;;;
2023/06/21 07:15:30;;;;;;;13.9;10.6;;;;;;;27.63;60.33;;;;;
2023/06/21 07:25:30;;;;;;;13.9;10.6;;;;;;;27.89;58.21;;;;;
2023/06/21 07:35:30;;;;;;;13.9;10.6;;;;;;;28.06;56.58;;;;;
2023/06/21 07:45:31;;;;;;;13.2;10;;;;;;;28.03;57.56;;;;;
2023/06/21 07:56:30;;;;;;;13.2;10;;;;;;;28.16;56.56;;;;;
2023/06/21 08:06:31;;;;;;;13.2;10;;;;;;;28.78;53.65;;;;;
2023/06/21 08:16:30;;;;;;;11.8;9.2;;;;;;;29.06;51.1;;;;;
2023/06/21 08:27:30;;;;;;;11.8;9.2;;;;;;;29.65;49.74;;;;;
2023/06/21 08:37:31;;;;;;;11.8;9.2;;;;;;;30.04;47.74;;;;;
2023/06/21 08:48:30;;;;;;;10.9;8.2;;;;;;;30.7;49.57;;;;;
2023/06/21 08:58:30;;;;;;;10.9;8.2;;;;;;;30.9;46.46;;;;;
2023/06/21 09:08:30;;;;;;;10.9;8.2;;;;;;;30.89;46.86;;;;;
2023/06/21 09:18:35;;;;;;;11.7;8;;;;;;;31.22;45.57;;;;;
2023/06/21 09:29:30;;;;;;;11.7;8;;;;;;;31.14;45.2;;;;;
2023/06/21 09:40:30;;;;;;;11.7;8;;;;;;;31.25;45.44;;;;;
2023/06/21 09:50:30;;;;;;;11.2;8.6;;;;;;;31.58;44.1;;;;;
2023/06/21 10:01:30;;;;;;;11.2;8.6;;;;;;;32.36;42.58;;;;;
2023/06/21 10:11:31;;;;;;;10.7;8.3;;;;;;;31.89;44.47;;;;;
2023/06/21 10:22:31;;;;;;;10.7;8.3;;;;;;;31.83;44.09;;;;;
2023/06/21 10:33:31;;;;;;;10.7;8.3;;;;;;;31.71;43.07;;;;;
2023/06/21 10:44:31;;;;;;;12.1;7.9;;;;;;;31.72;44.68;;;;;
2023/06/21 10:54:30;;;;;;;12.1;7.9;;;;;;;31.43;45.26;;;;;
2023/06/21 11:05:31;;;;;;;12.1;7.9;;;;;;;31.08;44.84;;;;;
2023/06/21 11:15:30;;;;;;;10.4;7.3;;;;;;;31.02;45.42;;;;;
2023/06/21 11:26:31;;;;;;;10.4;7.3;;;;;;;30.93;45.55;;;;;
2023/06/21 11:36:31;;;;;;;10.4;7.3;;;;;;;30.73;46.31;;;;;
2023/06/21 11:46:31;;;;;;;11.1;8.5;;;;;;;30.49;47.16;;;;;
2023/06/21 11:57:31;;;;;;;11.1;8.5;;;;;;;30.4;49.75;;;;;
2023/06/21 12:08:31;;;;;;;11.1;8.5;;;;;;;30.51;50.21;;;;;
2023/06/21 12:18:30;;;;;;;15;8.9;;;;;;;30.47;51.33;;;;;
2023/06/21 12:28:31;;;;;;;15;8.9;;;;;;;29.97;51.15;;;;;
2023/06/21 12:38:30;;;;;;;15;8.9;;;;;;;29.51;53.14;;;;;
2023/06/21 12:48:31;;;;;;;11.1;8.9;;;;;;;29.09;57.35;;;;;
2023/06/21 12:58:31;;;;;;;11.1;8.9;;;;;;;29.51;58.24;;;;;
2023/06/21 13:09:34;;;;;;;11.1;8.9;;;;;;;28.41;60.16;;;;;
2023/06/21 13:20:35;;;;;;;12;9.5;;;;;;;28.91;60.5;;;;;
2023/06/21 13:30:31;;;;;;;12;9.5;;;;;;;29.38;56.65;;;;;
2023/06/21 13:41:31;;;;;;;12;9.5;;;;;;;29.73;55.65;;;;;
2023/06/21 13:51:31;;;;;;;10;7.8;;;;;;;30.4;55.18;;;;;
2023/06/21 14:01:31;;;;;;;10;7.8;;;;;;;30.75;50.32;;;;;
2023/06/21 14:11:31;;;;;;;10;7.8;;;;;;;31.61;49.06;;;;;
2023/06/21 14:22:31;;;;;;;12.2;6.4;;;;;;;31.73;47.76;;;;;
2023/06/21 14:33:31;;;;;;;12.2;6.4;;;;;;;32.18;45.69;;;;;
2023/06/21 14:44:31;;;;;;;8;5.6;;;;;;;32.63;44.61;;;;;
2023/06/21 14:55:31;;;;;;;8;5.6;;;;;;;32.38;43.49;;;;;
2023/06/21 15:06:32;;;;;;;8;5.6;;;;;;;32.89;42.57;;;;;
2023/06/21 15:17:31;;;;;;;10.3;4.7;;;;;;;33.44;40.11;;;;;
2023/06/21 15:27:31;;;;;;;10.3;4.7;;;;;;;34.46;40.49;;;;;
2023/06/21 15:37:31;;;;;;;10.3;4.7;;;;;;;34.64;40.87;;;;;
2023/06/21 15:47:31;;;;;;;6.9;3.9;;;;;;;35.78;39.64;;;;;
2023/06/21 15:57:31;;;;;;;6.9;3.9;;;;;;;34.97;40.55;;;;;
2023/06/21 16:08:31;;;;;;;6.9;3.9;;;;;;;36.01;37.29;;;;;
2023/06/21 16:19:31;;;;;;;5.8;3.2;;;;;;;36.47;37.97;;;;;
2023/06/21 16:29:31;;;;;;;5.8;3.2;;;;;;;36.03;37.56;;;;;
2023/06/21 16:39:31;;;;;;;5.8;3.2;;;;;;;36.94;35.86;;;;;
2023/06/21 16:50:31;;;;;;;6;3.5;;;;;;;37.8;35.45;;;;;
2023/06/21 17:01:31;;;;;;;6;3.5;;;;;;;38.11;34.18;;;;;
2023/06/21 17:12:31;;;;;;;8.6;3.8;;;;;;;34.88;38.92;;;;;
2023/06/21 17:22:31;;;;;;;8.6;3.8;;;;;;;32.65;42.04;;;;;
2023/06/21 17:33:31;;;;;;;8.6;3.8;;;;;;;30.58;46.68;;;;;
2023/06/21 17:43:31;;;;;;;7.1;4.6;;;;;;;29.2;48.84;;;;;
2023/06/21 17:53:31;;;;;;;7.1;4.6;;;;;;;28.04;51.18;;;;;
2023/06/21 18:04:31;;;;;;;7.1;4.6;;;;;;;27.18;53.8;;;;;
2023/06/21 18:14:31;;;;;;;8.7;5.2;;;;;;;26.61;55.36;;;;;
2023/06/21 18:24:31;;;;;;;8.7;5.2;;;;;;;26.03;55.62;;;;;
2023/06/21 18:34:31;;;;;;;8.7;5.2;;;;;;;25.49;60.42;;;;;
2023/06/21 18:44:31;;;;;;;8.9;5;;;;;;;24.9;61.7;;;;;
2023/06/21 18:55:31;;;;;;;8.9;5;;;;;;;24.39;65.11;;;;;
2023/06/21 19:06:31;;;;;;;8.9;5;;;;;;;23.97;67;;;;;
2023/06/21 19:17:31;;;;;;;11;7.4;;;;;;;23.67;68.05;;;;;
2023/06/21 19:27:31;;;;;;;11;7.4;;;;;;;23.39;69.18;;;;;
2023/06/21 19:37:31;;;;;;;11;7.4;;;;;;;23.15;70.24;;;;;
2023/06/21 19:47:31;;;;;;;10.8;7.4;;;;;;;22.92;73.3;;;;;
2023/06/21 19:58:31;;;;;;;10.8;7.4;;;;;;;22.84;75.04;;;;;
2023/06/21 20:08:31;;;;;;;10.8;7.4;;;;;;;22.83;73.52;;;;;
2023/06/21 20:18:31;;;;;;;10.8;7.8;;;;;;;22.58;74.5;;;;;
2023/06/21 20:29:31;;;;;;;10.8;7.8;;;;;;;22.4;74.33;;;;;
2023/06/21 20:39:31;;;;;;;10.8;7.8;;;;;;;22.2;76.38;;;;;
2023/06/21 20:49:31;;;;;;;14.2;9.5;;;;;;;21.94;77.62;;;;;
2023/06/21 20:59:31;;;;;;;14.2;9.5;;;;;;;21.58;80.19;;;;;
2023/06/21 21:10:31;;;;;;;14.2;9.5;;;;;;;21.59;79;;;;;
2023/06/21 21:20:31;;;;;;;15.4;10.5;;;;;;;21.48;79.74;;;;;
2023/06/21 21:30:31;;;;;;;15.4;10.5;;;;;;;21.26;79.91;;;;;
2023/06/21 21:41:31;;;;;;;15.4;10.5;;;;;;;21.15;78.53;;;;;
2023/06/21 21:52:31;;;;;;;10.4;6.8;;;;;;;20.95;77.31;;;;;
2023/06/21 22:02:31;;;;;;;10.4;6.8;;;;;;;20.74;77.38;;;;;
2023/06/21 22:12:31;;;;;;;10.4;6.8;;;;;;;20.56;79.47;;;;;
2023/06/21 22:22:31;;;;;;;12;6.1;;;;;;;20.36;78.59;;;;;
2023/06/21 22:32:31;;;;;;;12;6.1;;;;;;;20.22;78.74;;;;;
2023/06/21 22:43:31;;;;;;;9.9;6;;;;;;;20.09;80.06;;;;;
2023/06/21 22:53:31;;;;;;;9.9;6;;;;;;;19.86;80.14;;;;;
2023/06/21 23:03:31;;;;;;;9.9;6;;;;;;;19.86;81.18;;;;;
2023/06/21 23:14:32;;;;;;;9.5;6.5;;;;;;;19.6;83.69;;;;;
2023/06/21 23:24:34;;;;;;;9.5;6.5;;;;;;;19.77;83.81;;;;;
2023/06/21 23:34:34;;;;;;;9.5;6.5;;;;;;;19.8;83.79;;;;;
2023/06/21 23:44:33;;;;;;;8.5;5.4;;;;;;;19.82;83.44;;;;;
2023/06/21 23:54:31;;;;;;;8.5;5.4;;;;;;;19.9;82.03;;;;;
